Terminal Aerodrome Forecast
Issued by NWS

Home | Current Version | Previous Version | Text Only | Print | Product List | Glossary On
Versions: 1 2 3 4 5 6 7 8 9 10 11 12
000
FTUS46 KLOX 031132
TAFVNY
TAF
KVNY 031132Z 0312/0412 VRB03KT P6SM SKC
     FM032000 17008KT P6SM SKC
     FM040000 12006KT P6SM SKC
     FM040400 VRB03KT P6SM SKC
     FM041100 VRB03KT P6SM BKN008=

USA.gov is the U.S. government's official web portal to all federal, state and local government web resources and services.